sensor_id;sensor_type;location;lat;lon;timestamp;temperature;humidity
24374;DHT22;12498;50.880;12.096;2023-07-20T00:02:00;16.60;99.90
24374;DHT22;12498;50.880;12.096;2023-07-20T00:04:27;16.60;99.90
24374;DHT22;12498;50.880;12.096;2023-07-20T00:06:53;16.60;99.90
24374;DHT22;12498;50.880;12.096;2023-07-20T00:09:19;16.50;99.90
24374;DHT22;12498;50.880;12.096;2023-07-20T00:11:50;16.60;99.90
24374;DHT22;12498;50.880;12.096;2023-07-20T00:14:16;16.50;99.90
24374;DHT22;12498;50.880;12.096;2023-07-20T00:16:42;16.50;99.90
24374;DHT22;12498;50.880;12.096;2023-07-20T00:19:08;16.40;99.90
24374;DHT22;12498;50.880;12.096;2023-07-20T00:21:34;16.40;99.90
24374;DHT22;12498;50.880;12.096;2023-07-20T00:24:00;16.40;99.90
24374;DHT22;12498;50.880;12.096;2023-07-20T00:26:25;16.30;99.90
24374;DHT22;12498;50.880;12.096;2023-07-20T00:28:51;16.30;99.90
24374;DHT22;12498;50.880;12.096;2023-07-20T00:31:17;16.30;99.90
24374;DHT22;12498;50.880;12.096;2023-07-20T00:33:43;16.30;99.90
24374;DHT22;12498;50.880;12.096;2023-07-20T00:36:08;16.30;99.90
24374;DHT22;12498;50.880;12.096;2023-07-20T00:38:34;16.30;99.90
24374;DHT22;12498;50.880;12.096;2023-07-20T00:41:00;16.30;99.90
24374;DHT22;12498;50.880;12.096;2023-07-20T00:43:25;16.30;99.90
24374;DHT22;12498;50.880;12.096;2023-07-20T00:45:51;16.20;99.90
24374;DHT22;12498;50.880;12.096;2023-07-20T00:48:16;16.20;99.90
24374;DHT22;12498;50.880;12.096;2023-07-20T00:50:42;16.20;99.90
24374;DHT22;12498;50.880;12.096;2023-07-20T00:53:08;16.20;99.90
24374;DHT22;12498;50.880;12.096;2023-07-20T00:58:00;16.20;99.90
24374;DHT22;12498;50.880;12.096;2023-07-20T01:00:26;16.20;99.90
24374;DHT22;12498;50.880;12.096;2023-07-20T01:02:53;16.10;99.90
24374;DHT22;12498;50.880;12.096;2023-07-20T01:05:19;16.00;99.90
24374;DHT22;12498;50.880;12.096;2023-07-20T01:07:59;16.10;99.90
24374;DHT22;12498;50.880;12.096;2023-07-20T01:11:01;16.00;99.90
24374;DHT22;12498;50.880;12.096;2023-07-20T01:13:32;16.00;99.90
24374;DHT22;12498;50.880;12.096;2023-07-20T01:16:01;16.00;99.90
24374;DHT22;12498;50.880;12.096;2023-07-20T01:20:59;15.90;99.90
24374;DHT22;12498;50.880;12.096;2023-07-20T01:31:18;15.80;99.90
24374;DHT22;12498;50.880;12.096;2023-07-20T01:33:46;15.80;99.90
24374;DHT22;12498;50.880;12.096;2023-07-20T01:36:13;15.70;99.90
24374;DHT22;12498;50.880;12.096;2023-07-20T01:38:40;15.70;99.90
24374;DHT22;12498;50.880;12.096;2023-07-20T01:41:07;15.70;99.90
24374;DHT22;12498;50.880;12.096;2023-07-20T01:43:34;15.70;99.90
24374;DHT22;12498;50.880;12.096;2023-07-20T01:45:59;15.70;99.90
24374;DHT22;12498;50.880;12.096;2023-07-20T01:48:25;15.70;99.90
24374;DHT22;12498;50.880;12.096;2023-07-20T01:50:51;15.60;99.90
24374;DHT22;12498;50.880;12.096;2023-07-20T01:53:17;15.60;99.90
24374;DHT22;12498;50.880;12.096;2023-07-20T01:55:43;15.50;99.90
24374;DHT22;12498;50.880;12.096;2023-07-20T01:58:08;15.50;99.90
24374;DHT22;12498;50.880;12.096;2023-07-20T02:00:36;15.60;99.90
24374;DHT22;12498;50.880;12.096;2023-07-20T02:03:02;15.60;99.90
24374;DHT22;12498;50.880;12.096;2023-07-20T02:05:27;15.60;99.90
24374;DHT22;12498;50.880;12.096;2023-07-20T02:10:19;15.60;99.90
24374;DHT22;12498;50.880;12.096;2023-07-20T02:15:11;15.60;99.90
24374;DHT22;12498;50.880;12.096;2023-07-20T02:20:07;15.60;99.90
24374;DHT22;12498;50.880;12.096;2023-07-20T02:22:34;15.50;99.90
24374;DHT22;12498;50.880;12.096;2023-07-20T02:25:00;15.50;99.90
24374;DHT22;12498;50.880;12.096;2023-07-20T02:27:25;15.40;99.90
24374;DHT22;12498;50.880;12.096;2023-07-20T02:29:51;15.50;99.90
24374;DHT22;12498;50.880;12.096;2023-07-20T02:32:16;15.50;99.90
24374;DHT22;12498;50.880;12.096;2023-07-20T02:34:42;15.50;99.90
24374;DHT22;12498;50.880;12.096;2023-07-20T02:37:08;15.50;99.90
24374;DHT22;12498;50.880;12.096;2023-07-20T02:39:33;15.50;99.90
24374;DHT22;12498;50.880;12.096;2023-07-20T02:41:59;15.50;99.90
24374;DHT22;12498;50.880;12.096;2023-07-20T02:44:25;15.50;99.90
24374;DHT22;12498;50.880;12.096;2023-07-20T02:46:51;15.50;99.90
24374;DHT22;12498;50.880;12.096;2023-07-20T02:49:16;15.50;99.90
24374;DHT22;12498;50.880;12.096;2023-07-20T02:51:42;15.50;99.90
24374;DHT22;12498;50.880;12.096;2023-07-20T02:54:08;15.50;99.90
24374;DHT22;12498;50.880;12.096;2023-07-20T02:56:34;15.50;99.90
24374;DHT22;12498;50.880;12.096;2023-07-20T02:59:01;15.50;99.90
24374;DHT22;12498;50.880;12.096;2023-07-20T03:01:27;15.50;99.90
24374;DHT22;12498;50.880;12.096;2023-07-20T03:03:57;15.40;99.90
24374;DHT22;12498;50.880;12.096;2023-07-20T03:06:23;15.50;99.90
24374;DHT22;12498;50.880;12.096;2023-07-20T03:08:49;15.50;99.90
24374;DHT22;12498;50.880;12.096;2023-07-20T03:11:18;15.50;99.90
24374;DHT22;12498;50.880;12.096;2023-07-20T03:13:44;15.50;99.90
24374;DHT22;12498;50.880;12.096;2023-07-20T03:16:15;15.50;99.90
24374;DHT22;12498;50.880;12.096;2023-07-20T03:18:44;15.50;99.90
24374;DHT22;12498;50.880;12.096;2023-07-20T03:21:11;15.50;99.90
24374;DHT22;12498;50.880;12.096;2023-07-20T03:23:37;15.50;99.90
24374;DHT22;12498;50.880;12.096;2023-07-20T03:26:03;15.50;99.90
24374;DHT22;12498;50.880;12.096;2023-07-20T03:28:29;15.50;99.90
24374;DHT22;12498;50.880;12.096;2023-07-20T03:30:57;15.60;99.90
24374;DHT22;12498;50.880;12.096;2023-07-20T03:33:27;15.60;99.90
24374;DHT22;12498;50.880;12.096;2023-07-20T03:35:54;15.60;99.90
24374;DHT22;12498;50.880;12.096;2023-07-20T03:38:20;15.60;99.90
24374;DHT22;12498;50.880;12.096;2023-07-20T03:40:53;15.60;99.90
24374;DHT22;12498;50.880;12.096;2023-07-20T03:43:20;15.60;99.90
24374;DHT22;12498;50.880;12.096;2023-07-20T03:45:46;15.60;99.90
24374;DHT22;12498;50.880;12.096;2023-07-20T03:48:17;15.60;99.90
24374;DHT22;12498;50.880;12.096;2023-07-20T03:50:44;15.60;99.90
24374;DHT22;12498;50.880;12.096;2023-07-20T03:53:11;15.60;99.90
24374;DHT22;12498;50.880;12.096;2023-07-20T03:55:36;15.70;99.90
24374;DHT22;12498;50.880;12.096;2023-07-20T03:58:02;17.80;99.90
24374;DHT22;12498;50.880;12.096;2023-07-20T04:00:28;15.70;99.90
24374;DHT22;12498;50.880;12.096;2023-07-20T04:02:54;16.60;99.90
24374;DHT22;12498;50.880;12.096;2023-07-20T04:05:20;15.70;99.90
24374;DHT22;12498;50.880;12.096;2023-07-20T04:07:45;15.70;99.90
24374;DHT22;12498;50.880;12.096;2023-07-20T04:10:11;15.70;99.90
24374;DHT22;12498;50.880;12.096;2023-07-20T04:12:37;15.70;99.90
24374;DHT22;12498;50.880;12.096;2023-07-20T04:15:02;15.80;99.90
24374;DHT22;12498;50.880;12.096;2023-07-20T04:17:29;15.80;99.90
24374;DHT22;12498;50.880;12.096;2023-07-20T04:19:54;15.80;99.90
24374;DHT22;12498;50.880;12.096;2023-07-20T04:22:20;15.80;99.90
24374;DHT22;12498;50.880;12.096;2023-07-20T04:24:46;15.90;99.90
24374;DHT22;12498;50.880;12.096;2023-07-20T04:27:12;17.00;99.90
24374;DHT22;12498;50.880;12.096;2023-07-20T04:29:37;16.00;99.90
24374;DHT22;12498;50.880;12.096;2023-07-20T04:32:03;16.00;99.90
24374;DHT22;12498;50.880;12.096;2023-07-20T04:34:29;16.10;99.90
24374;DHT22;12498;50.880;12.096;2023-07-20T04:36:54;16.10;99.90
24374;DHT22;12498;50.880;12.096;2023-07-20T04:39:20;16.00;99.90
24374;DHT22;12498;50.880;12.096;2023-07-20T04:41:46;16.10;99.90
24374;DHT22;12498;50.880;12.096;2023-07-20T04:44:12;16.20;99.90
24374;DHT22;12498;50.880;12.096;2023-07-20T04:46:38;16.50;99.90
24374;DHT22;12498;50.880;12.096;2023-07-20T04:49:05;16.60;99.90
24374;DHT22;12498;50.880;12.096;2023-07-20T04:51:31;16.80;99.90
24374;DHT22;12498;50.880;12.096;2023-07-20T04:53:57;17.00;99.90
24374;DHT22;12498;50.880;12.096;2023-07-20T04:56:23;17.10;99.90
24374;DHT22;12498;50.880;12.096;2023-07-20T04:58:50;17.20;99.90
24374;DHT22;12498;50.880;12.096;2023-07-20T05:01:15;17.20;99.90
24374;DHT22;12498;50.880;12.096;2023-07-20T05:03:41;17.10;99.90
24374;DHT22;12498;50.880;12.096;2023-07-20T05:06:06;17.20;99.90
24374;DHT22;12498;50.880;12.096;2023-07-20T05:08:32;17.20;99.90
24374;DHT22;12498;50.880;12.096;2023-07-20T05:10:59;17.20;99.90
24374;DHT22;12498;50.880;12.096;2023-07-20T05:13:25;17.30;99.90
24374;DHT22;12498;50.880;12.096;2023-07-20T05:15:52;17.40;99.90
24374;DHT22;12498;50.880;12.096;2023-07-20T05:18:18;17.40;99.90
24374;DHT22;12498;50.880;12.096;2023-07-20T05:20:46;17.50;99.90
24374;DHT22;12498;50.880;12.096;2023-07-20T05:23:12;17.30;99.90
24374;DHT22;12498;50.880;12.096;2023-07-20T05:25:38;17.40;99.90
24374;DHT22;12498;50.880;12.096;2023-07-20T05:28:04;17.50;99.90
24374;DHT22;12498;50.880;12.096;2023-07-20T05:30:29;17.60;99.90
24374;DHT22;12498;50.880;12.096;2023-07-20T05:32:55;17.60;99.90
24374;DHT22;12498;50.880;12.096;2023-07-20T05:35:20;17.60;96.50
24374;DHT22;12498;50.880;12.096;2023-07-20T05:37:46;17.40;99.90
24374;DHT22;12498;50.880;12.096;2023-07-20T05:40:13;17.30;99.90
24374;DHT22;12498;50.880;12.096;2023-07-20T05:42:40;17.40;99.90
24374;DHT22;12498;50.880;12.096;2023-07-20T05:45:06;17.40;99.90
24374;DHT22;12498;50.880;12.096;2023-07-20T05:47:31;17.40;99.90
24374;DHT22;12498;50.880;12.096;2023-07-20T05:49:57;17.40;99.90
24374;DHT22;12498;50.880;12.096;2023-07-20T05:52:23;17.50;99.90
24374;DHT22;12498;50.880;12.096;2023-07-20T05:54:48;17.50;99.90
24374;DHT22;12498;50.880;12.096;2023-07-20T05:57:14;17.50;99.90
24374;DHT22;12498;50.880;12.096;2023-07-20T05:59:39;17.50;99.90
24374;DHT22;12498;50.880;12.096;2023-07-20T06:02:09;17.30;99.90
24374;DHT22;12498;50.880;12.096;2023-07-20T06:04:35;17.10;99.90
24374;DHT22;12498;50.880;12.096;2023-07-20T06:07:01;17.10;99.90
24374;DHT22;12498;50.880;12.096;2023-07-20T06:09:26;17.20;99.90
24374;DHT22;12498;50.880;12.096;2023-07-20T06:11:53;17.20;99.90
24374;DHT22;12498;50.880;12.096;2023-07-20T06:14:18;17.20;99.90
24374;DHT22;12498;50.880;12.096;2023-07-20T06:16:44;17.30;99.90
24374;DHT22;12498;50.880;12.096;2023-07-20T06:19:10;17.60;99.90
24374;DHT22;12498;50.880;12.096;2023-07-20T06:21:39;17.60;99.90
24374;DHT22;12498;50.880;12.096;2023-07-20T06:24:05;17.80;99.90
24374;DHT22;12498;50.880;12.096;2023-07-20T06:26:30;17.90;48.10
24374;DHT22;12498;50.880;12.096;2023-07-20T06:28:56;17.80;57.90
24374;DHT22;12498;50.880;12.096;2023-07-20T06:31:23;17.90;82.70
24374;DHT22;12498;50.880;12.096;2023-07-20T06:33:49;17.80;1.00
24374;DHT22;12498;50.880;12.096;2023-07-20T06:36:18;17.90;45.70
24374;DHT22;12498;50.880;12.096;2023-07-20T06:38:43;18.10;7.00
24374;DHT22;12498;50.880;12.096;2023-07-20T06:41:09;18.20;1.00
24374;DHT22;12498;50.880;12.096;2023-07-20T06:43:34;18.20;1.00
24374;DHT22;12498;50.880;12.096;2023-07-20T06:46:00;18.30;1.00
24374;DHT22;12498;50.880;12.096;2023-07-20T06:48:26;18.30;1.00
24374;DHT22;12498;50.880;12.096;2023-07-20T06:50:52;18.50;1.00
24374;DHT22;12498;50.880;12.096;2023-07-20T06:53:17;18.60;99.90
24374;DHT22;12498;50.880;12.096;2023-07-20T06:55:43;18.50;99.90
24374;DHT22;12498;50.880;12.096;2023-07-20T06:58:10;18.50;99.90
24374;DHT22;12498;50.880;12.096;2023-07-20T07:00:36;18.50;99.90
24374;DHT22;12498;50.880;12.096;2023-07-20T07:03:02;18.40;99.90
24374;DHT22;12498;50.880;12.096;2023-07-20T07:05:28;18.50;99.90
24374;DHT22;12498;50.880;12.096;2023-07-20T07:07:53;18.60;99.90
24374;DHT22;12498;50.880;12.096;2023-07-20T07:10:19;18.80;99.90
24374;DHT22;12498;50.880;12.096;2023-07-20T07:12:45;19.10;99.90
24374;DHT22;12498;50.880;12.096;2023-07-20T07:15:10;19.20;21.30
24374;DHT22;12498;50.880;12.096;2023-07-20T07:17:36;19.20;1.00
24374;DHT22;12498;50.880;12.096;2023-07-20T07:20:02;19.20;99.90
24374;DHT22;12498;50.880;12.096;2023-07-20T07:22:29;19.10;1.00
24374;DHT22;12498;50.880;12.096;2023-07-20T07:24:56;19.00;1.00
24374;DHT22;12498;50.880;12.096;2023-07-20T07:27:21;18.90;1.00
24374;DHT22;12498;50.880;12.096;2023-07-20T07:29:47;18.90;1.00
24374;DHT22;12498;50.880;12.096;2023-07-20T07:32:14;18.90;83.10
24374;DHT22;12498;50.880;12.096;2023-07-20T07:34:40;18.70;27.80
24374;DHT22;12498;50.880;12.096;2023-07-20T07:37:06;18.60;99.90
24374;DHT22;12498;50.880;12.096;2023-07-20T07:39:31;18.50;94.60
24374;DHT22;12498;50.880;12.096;2023-07-20T07:41:57;18.70;99.90
24374;DHT22;12498;50.880;12.096;2023-07-20T07:44:23;18.80;1.00
24374;DHT22;12498;50.880;12.096;2023-07-20T07:46:49;19.00;99.90
24374;DHT22;12498;50.880;12.096;2023-07-20T07:49:16;19.00;3.30
24374;DHT22;12498;50.880;12.096;2023-07-20T07:51:41;19.00;1.00
24374;DHT22;12498;50.880;12.096;2023-07-20T07:54:07;18.90;99.90
24374;DHT22;12498;50.880;12.096;2023-07-20T07:56:33;19.10;99.90
24374;DHT22;12498;50.880;12.096;2023-07-20T07:58:58;19.30;60.50
24374;DHT22;12498;50.880;12.096;2023-07-20T08:01:24;19.40;46.90
24374;DHT22;12498;50.880;12.096;2023-07-20T08:03:49;19.60;99.90
24374;DHT22;12498;50.880;12.096;2023-07-20T08:06:16;19.70;1.00
24374;DHT22;12498;50.880;12.096;2023-07-20T08:08:42;19.90;1.00
24374;DHT22;12498;50.880;12.096;2023-07-20T08:11:08;20.00;99.90
24374;DHT22;12498;50.880;12.096;2023-07-20T08:13:34;20.00;99.90
24374;DHT22;12498;50.880;12.096;2023-07-20T08:16:01;20.00;99.90
24374;DHT22;12498;50.880;12.096;2023-07-20T08:18:29;20.20;99.90
24374;DHT22;12498;50.880;12.096;2023-07-20T08:20:55;20.10;1.00
24374;DHT22;12498;50.880;12.096;2023-07-20T08:23:20;20.10;99.90
24374;DHT22;12498;50.880;12.096;2023-07-20T08:25:46;20.30;99.90
24374;DHT22;12498;50.880;12.096;2023-07-20T08:28:16;20.50;35.50
24374;DHT22;12498;50.880;12.096;2023-07-20T08:30:43;20.50;1.00
24374;DHT22;12498;50.880;12.096;2023-07-20T08:33:13;20.60;99.90
24374;DHT22;12498;50.880;12.096;2023-07-20T08:35:43;20.60;1.00
24374;DHT22;12498;50.880;12.096;2023-07-20T08:38:09;20.70;99.90
24374;DHT22;12498;50.880;12.096;2023-07-20T08:40:43;20.60;99.90
24374;DHT22;12498;50.880;12.096;2023-07-20T08:43:14;20.50;99.90
24374;DHT22;12498;50.880;12.096;2023-07-20T08:45:42;20.30;99.90
24374;DHT22;12498;50.880;12.096;2023-07-20T08:48:12;20.20;99.90
24374;DHT22;12498;50.880;12.096;2023-07-20T08:50:38;20.10;1.00
24374;DHT22;12498;50.880;12.096;2023-07-20T08:53:04;20.10;57.00
24374;DHT22;12498;50.880;12.096;2023-07-20T08:55:30;20.30;99.90
24374;DHT22;12498;50.880;12.096;2023-07-20T08:57:58;20.40;99.90
24374;DHT22;12498;50.880;12.096;2023-07-20T09:00:25;20.30;99.90
24374;DHT22;12498;50.880;12.096;2023-07-20T09:02:53;20.40;99.90
24374;DHT22;12498;50.880;12.096;2023-07-20T09:05:20;20.40;99.90
24374;DHT22;12498;50.880;12.096;2023-07-20T09:07:46;20.30;1.00
24374;DHT22;12498;50.880;12.096;2023-07-20T09:10:13;20.30;99.90
24374;DHT22;12498;50.880;12.096;2023-07-20T09:12:43;20.30;1.00
24374;DHT22;12498;50.880;12.096;2023-07-20T09:15:11;20.20;1.00
24374;DHT22;12498;50.880;12.096;2023-07-20T09:17:37;20.30;22.20
24374;DHT22;12498;50.880;12.096;2023-07-20T09:20:07;20.20;45.30
24374;DHT22;12498;50.880;12.096;2023-07-20T09:22:37;20.40;1.00
24374;DHT22;12498;50.880;12.096;2023-07-20T09:25:26;20.40;99.90
24374;DHT22;12498;50.880;12.096;2023-07-20T09:27:52;20.30;99.90
24374;DHT22;12498;50.880;12.096;2023-07-20T09:30:17;20.10;99.90
24374;DHT22;12498;50.880;12.096;2023-07-20T09:32:45;20.00;99.90
24374;DHT22;12498;50.880;12.096;2023-07-20T09:35:18;19.80;99.90
24374;DHT22;12498;50.880;12.096;2023-07-20T09:37:50;19.80;1.00
24374;DHT22;12498;50.880;12.096;2023-07-20T09:40:19;19.90;1.00
24374;DHT22;12498;50.880;12.096;2023-07-20T09:42:45;20.00;1.00
24374;DHT22;12498;50.880;12.096;2023-07-20T09:45:11;20.20;99.90
24374;DHT22;12498;50.880;12.096;2023-07-20T09:47:38;20.50;99.90
24374;DHT22;12498;50.880;12.096;2023-07-20T09:50:04;20.70;99.90
24374;DHT22;12498;50.880;12.096;2023-07-20T09:52:38;21.00;1.00
24374;DHT22;12498;50.880;12.096;2023-07-20T09:55:06;21.20;99.90
24374;DHT22;12498;50.880;12.096;2023-07-20T09:57:33;21.30;99.90
24374;DHT22;12498;50.880;12.096;2023-07-20T10:00:00;21.10;99.90
24374;DHT22;12498;50.880;12.096;2023-07-20T10:02:30;20.90;99.90
24374;DHT22;12498;50.880;12.096;2023-07-20T10:05:02;21.00;99.90
24374;DHT22;12498;50.880;12.096;2023-07-20T10:07:30;21.00;1.00
24374;DHT22;12498;50.880;12.096;2023-07-20T10:09:59;20.80;66.00
24374;DHT22;12498;50.880;12.096;2023-07-20T10:12:27;20.50;1.00
24374;DHT22;12498;50.880;12.096;2023-07-20T10:15:10;20.40;99.90
24374;DHT22;12498;50.880;12.096;2023-07-20T10:17:44;20.40;99.90
24374;DHT22;12498;50.880;12.096;2023-07-20T10:20:16;20.50;99.90
24374;DHT22;12498;50.880;12.096;2023-07-20T10:22:44;20.60;1.00
24374;DHT22;12498;50.880;12.096;2023-07-20T10:25:10;20.70;99.90
24374;DHT22;12498;50.880;12.096;2023-07-20T10:27:37;21.30;99.90
24374;DHT22;12498;50.880;12.096;2023-07-20T10:30:05;22.50;1.00
24374;DHT22;12498;50.880;12.096;2023-07-20T10:32:31;23.70;1.00
24374;DHT22;12498;50.880;12.096;2023-07-20T10:34:57;24.60;99.90
24374;DHT22;12498;50.880;12.096;2023-07-20T10:37:51;25.70;1.00
24374;DHT22;12498;50.880;12.096;2023-07-20T10:40:24;26.50;99.90
24374;DHT22;12498;50.880;12.096;2023-07-20T10:42:50;26.90;99.90
24374;DHT22;12498;50.880;12.096;2023-07-20T10:45:17;26.10;99.90
24374;DHT22;12498;50.880;12.096;2023-07-20T10:47:46;25.90;99.90
24374;DHT22;12498;50.880;12.096;2023-07-20T10:50:12;25.30;99.90
24374;DHT22;12498;50.880;12.096;2023-07-20T10:52:39;24.60;99.90
24374;DHT22;12498;50.880;12.096;2023-07-20T10:55:14;23.50;1.00
24374;DHT22;12498;50.880;12.096;2023-07-20T10:57:41;22.00;1.00
24374;DHT22;12498;50.880;12.096;2023-07-20T11:00:13;21.00;99.90
24374;DHT22;12498;50.880;12.096;2023-07-20T11:02:49;20.40;99.90
24374;DHT22;12498;50.880;12.096;2023-07-20T11:05:36;19.50;99.90
24374;DHT22;12498;50.880;12.096;2023-07-20T11:08:04;19.40;99.90
24374;DHT22;12498;50.880;12.096;2023-07-20T11:10:30;19.50;99.90
24374;DHT22;12498;50.880;12.096;2023-07-20T11:13:16;19.40;50.50
24374;DHT22;12498;50.880;12.096;2023-07-20T11:18:25;19.50;14.50
24374;DHT22;12498;50.880;12.096;2023-07-20T11:20:51;19.60;36.20
24374;DHT22;12498;50.880;12.096;2023-07-20T11:23:19;19.70;1.00
24374;DHT22;12498;50.880;12.096;2023-07-20T11:25:45;19.90;19.80
24374;DHT22;12498;50.880;12.096;2023-07-20T11:28:11;20.40;99.90
24374;DHT22;12498;50.880;12.096;2023-07-20T11:30:40;20.40;1.00
24374;DHT22;12498;50.880;12.096;2023-07-20T11:33:08;20.10;92.60
24374;DHT22;12498;50.880;12.096;2023-07-20T11:35:48;19.80;86.60
24374;DHT22;12498;50.880;12.096;2023-07-20T11:38:14;20.10;99.90
24374;DHT22;12498;50.880;12.096;2023-07-20T11:40:46;19.50;1.00
24374;DHT22;12498;50.880;12.096;2023-07-20T11:43:12;19.40;1.00
24374;DHT22;12498;50.880;12.096;2023-07-20T11:45:39;19.60;32.20
24374;DHT22;12498;50.880;12.096;2023-07-20T11:48:05;19.60;1.00
24374;DHT22;12498;50.880;12.096;2023-07-20T11:50:31;19.80;99.90
24374;DHT22;12498;50.880;12.096;2023-07-20T11:52:57;21.00;99.90
24374;DHT22;12498;50.880;12.096;2023-07-20T11:55:23;22.20;1.00
24374;DHT22;12498;50.880;12.096;2023-07-20T11:58:05;22.40;1.00
24374;DHT22;12498;50.880;12.096;2023-07-20T12:00:32;23.70;99.90
24374;DHT22;12498;50.880;12.096;2023-07-20T12:02:58;25.30;1.00
24374;DHT22;12498;50.880;12.096;2023-07-20T12:05:24;26.10;99.90
24374;DHT22;12498;50.880;12.096;2023-07-20T12:07:51;26.00;99.90
24374;DHT22;12498;50.880;12.096;2023-07-20T12:10:24;26.10;99.90
24374;DHT22;12498;50.880;12.096;2023-07-20T12:12:51;26.30;99.90
24374;DHT22;12498;50.880;12.096;2023-07-20T12:15:22;26.90;99.90
24374;DHT22;12498;50.880;12.096;2023-07-20T12:17:52;28.00;99.90
24374;DHT22;12498;50.880;12.096;2023-07-20T12:20:26;28.70;99.90
24374;DHT22;12498;50.880;12.096;2023-07-20T12:22:52;28.70;99.90
24374;DHT22;12498;50.880;12.096;2023-07-20T12:25:19;28.80;99.90
24374;DHT22;12498;50.880;12.096;2023-07-20T12:27:46;29.20;99.90
24374;DHT22;12498;50.880;12.096;2023-07-20T12:30:13;29.60;99.90
24374;DHT22;12498;50.880;12.096;2023-07-20T12:32:42;30.00;99.90
24374;DHT22;12498;50.880;12.096;2023-07-20T12:35:08;30.50;99.90
24374;DHT22;12498;50.880;12.096;2023-07-20T12:37:33;30.30;99.90
24374;DHT22;12498;50.880;12.096;2023-07-20T12:39:59;29.40;94.00
24374;DHT22;12498;50.880;12.096;2023-07-20T12:42:25;28.30;94.30
24374;DHT22;12498;50.880;12.096;2023-07-20T12:44:51;27.00;96.10
24374;DHT22;12498;50.880;12.096;2023-07-20T12:47:18;26.00;99.90
24374;DHT22;12498;50.880;12.096;2023-07-20T12:49:44;25.30;99.90
24374;DHT22;12498;50.880;12.096;2023-07-20T12:52:11;24.70;99.90
24374;DHT22;12498;50.880;12.096;2023-07-20T12:54:36;24.40;99.90
24374;DHT22;12498;50.880;12.096;2023-07-20T12:57:02;24.40;99.90
24374;DHT22;12498;50.880;12.096;2023-07-20T12:59:29;23.90;99.90
24374;DHT22;12498;50.880;12.096;2023-07-20T13:01:54;23.60;99.90
24374;DHT22;12498;50.880;12.096;2023-07-20T13:04:20;23.20;99.90
24374;DHT22;12498;50.880;12.096;2023-07-20T13:06:45;22.90;99.90
24374;DHT22;12498;50.880;12.096;2023-07-20T13:09:11;22.60;99.90
24374;DHT22;12498;50.880;12.096;2023-07-20T13:11:37;22.30;99.90
24374;DHT22;12498;50.880;12.096;2023-07-20T13:14:02;22.10;99.90
24374;DHT22;12498;50.880;12.096;2023-07-20T13:16:28;21.80;99.90
24374;DHT22;12498;50.880;12.096;2023-07-20T13:18:54;21.70;99.90
24374;DHT22;12498;50.880;12.096;2023-07-20T13:21:19;21.70;99.90
24374;DHT22;12498;50.880;12.096;2023-07-20T13:23:48;21.80;1.00
24374;DHT22;12498;50.880;12.096;2023-07-20T13:26:15;21.90;1.00
24374;DHT22;12498;50.880;12.096;2023-07-20T13:28:41;22.00;1.00
24374;DHT22;12498;50.880;12.096;2023-07-20T13:31:06;22.10;1.00
24374;DHT22;12498;50.880;12.096;2023-07-20T13:33:34;21.70;32.90
24374;DHT22;12498;50.880;12.096;2023-07-20T13:36:00;21.90;98.40
24374;DHT22;12498;50.880;12.096;2023-07-20T13:38:26;22.00;1.00
24374;DHT22;12498;50.880;12.096;2023-07-20T13:40:52;22.20;1.00
24374;DHT22;12498;50.880;12.096;2023-07-20T13:43:17;22.90;1.00
24374;DHT22;12498;50.880;12.096;2023-07-20T13:45:43;23.90;99.90
24374;DHT22;12498;50.880;12.096;2023-07-20T13:48:09;25.30;99.90
24374;DHT22;12498;50.880;12.096;2023-07-20T13:50:34;26.60;99.90
24374;DHT22;12498;50.880;12.096;2023-07-20T13:53:00;26.90;99.90
24374;DHT22;12498;50.880;12.096;2023-07-20T13:55:28;26.50;99.90
24374;DHT22;12498;50.880;12.096;2023-07-20T13:57:53;24.70;99.90
24374;DHT22;12498;50.880;12.096;2023-07-20T14:00:19;23.30;99.90
24374;DHT22;12498;50.880;12.096;2023-07-20T14:02:45;22.70;99.90
24374;DHT22;12498;50.880;12.096;2023-07-20T14:05:10;22.50;99.90
24374;DHT22;12498;50.880;12.096;2023-07-20T14:07:36;22.40;99.90
24374;DHT22;12498;50.880;12.096;2023-07-20T14:10:02;22.40;99.90
24374;DHT22;12498;50.880;12.096;2023-07-20T14:12:28;22.40;99.90
24374;DHT22;12498;50.880;12.096;2023-07-20T14:14:54;22.40;1.00
24374;DHT22;12498;50.880;12.096;2023-07-20T14:17:21;22.50;1.00
24374;DHT22;12498;50.880;12.096;2023-07-20T14:19:47;22.50;99.90
24374;DHT22;12498;50.880;12.096;2023-07-20T14:22:12;22.70;99.90
24374;DHT22;12498;50.880;12.096;2023-07-20T14:24:38;22.80;99.90
24374;DHT22;12498;50.880;12.096;2023-07-20T14:27:04;22.80;99.90
24374;DHT22;12498;50.880;12.096;2023-07-20T14:29:29;22.90;99.90
24374;DHT22;12498;50.880;12.096;2023-07-20T14:31:57;23.10;99.90
24374;DHT22;12498;50.880;12.096;2023-07-20T14:34:23;22.90;99.90
24374;DHT22;12498;50.880;12.096;2023-07-20T14:36:48;22.60;99.90
24374;DHT22;12498;50.880;12.096;2023-07-20T14:39:15;22.60;99.90
24374;DHT22;12498;50.880;12.096;2023-07-20T14:41:41;22.60;99.90
24374;DHT22;12498;50.880;12.096;2023-07-20T14:44:06;22.60;99.90
24374;DHT22;12498;50.880;12.096;2023-07-20T14:46:32;22.60;99.90
24374;DHT22;12498;50.880;12.096;2023-07-20T14:48:58;22.80;99.90
24374;DHT22;12498;50.880;12.096;2023-07-20T14:51:24;23.30;99.90
24374;DHT22;12498;50.880;12.096;2023-07-20T14:53:49;23.20;99.90
24374;DHT22;12498;50.880;12.096;2023-07-20T14:56:15;23.40;99.90
24374;DHT22;12498;50.880;12.096;2023-07-20T14:58:41;23.30;99.90
24374;DHT22;12498;50.880;12.096;2023-07-20T15:01:06;23.50;99.90
24374;DHT22;12498;50.880;12.096;2023-07-20T15:03:32;23.60;99.90
24374;DHT22;12498;50.880;12.096;2023-07-20T15:05:57;23.60;99.90
24374;DHT22;12498;50.880;12.096;2023-07-20T15:08:23;23.40;99.90
24374;DHT22;12498;50.880;12.096;2023-07-20T15:10:49;23.30;99.90
24374;DHT22;12498;50.880;12.096;2023-07-20T15:13:15;23.40;99.90
24374;DHT22;12498;50.880;12.096;2023-07-20T15:15:41;23.50;99.90
24374;DHT22;12498;50.880;12.096;2023-07-20T15:18:08;23.40;99.90
24374;DHT22;12498;50.880;12.096;2023-07-20T15:20:34;23.50;99.90
24374;DHT22;12498;50.880;12.096;2023-07-20T15:22:59;23.30;99.90
24374;DHT22;12498;50.880;12.096;2023-07-20T15:25:25;23.50;99.90
24374;DHT22;12498;50.880;12.096;2023-07-20T15:27:51;23.60;99.90
24374;DHT22;12498;50.880;12.096;2023-07-20T15:30:17;23.90;99.90
24374;DHT22;12498;50.880;12.096;2023-07-20T15:32:43;24.00;99.90
24374;DHT22;12498;50.880;12.096;2023-07-20T15:35:09;24.00;99.90
24374;DHT22;12498;50.880;12.096;2023-07-20T15:37:36;24.20;99.90
24374;DHT22;12498;50.880;12.096;2023-07-20T15:40:02;24.50;99.80